Burlington, CO

4:45 AM MDT on October 24, 2014 (GMT -0600)
Cheyenne County Municipal | Change Station
CLOSE
Current Station
Airport
Location: St. Francis,
Elevation: 3412 ft
Nearby Weather Stations

Elev 3412 ft 39.76 °N, 101.80 °W | Updated 10 minutes ago

Clear
Clear
48 °F
Feels Like 48 °F
N
9
Wind Variable Wind from SW

Today
High -- | Low -- °F
--% Chance of Precip.
Yesterday
High -- | Low -- °F
Precip. -- in
7:08 AM 5:57 PM
New Moon, 0% visible
Pressure 30.04 in
Visibility 10.0 miles
Clouds Clear
Dew Point 42 °F
Humidity 79%
Rainfall 0.00 in
Snow Depth Not available.
UV 0 out of 12
Pollen 2.40 out of 12
Air Quality Not available.
Flu Activity Sporadic
METAR KSYF 241035Z AUTO 23008KT 10SM CLR 09/06 A3004 RMK AO2 T00900055

More Conditions Fewer Conditions

Pressure 30.04 in
Visibility 10.0 miles
Clouds Clear
Dew Point 42 °F
Humidity 79%
Rainfall 0.00 in
Snow Depth Not available.
UV 0 out of 12
Pollen 2.40 out of 12
Air Quality Not available.
Flu Activity Sporadic
METAR KSYF 241035Z AUTO 23008KT 10SM CLR 09/06 A3004 RMK AO2 T00900055

More Conditions Fewer Conditions

10-Day Weather Forecast

Almanac

Astronomy

Oct. 24, 2014 Rise Set
Actual Time 7:08 AM MDT 5:57 PM MDT
Civil Twilight 6:40 AM MDT 6:24 PM MDT
Nautical Twilight 6:09 AM MDT 6:56 PM MDT
Astronomical Twilight 5:38 AM MDT 7:27 PM MDT
Moon 7:49 AM MDT 6:39 PM MDT
Length of Visible Light 11h 44m
Length of Day
10h 49m
Tomorrow will be 2m 22s shorter.
New Moon, 0% of the Moon is Illuminated
Today
New Moon
Oct 30
First Quarter
Nov 6
Full
Nov 14
Last Quarter
Nov 22
New

Today's Extremes

State Highs State Lows

Community

WunderPhotos

Upload Photos

1,764,516 photos uploaded!

WunderBlogs® & News

Nearby

Snow Depth

Station Depth Elevation
Glen Cove 1 in 11460 ft
Echo Lake 0 in 10600 ft
Lake Eldora 0 in 9700 ft
Niwot 0 in 9910 ft
University Camp 0 in 10300 ft

Earthquake Activity

City Distance Mag. Time & Date
No recent earthquake activity has been reported nearby.
Minimum magnitude displayed is 2.5.

Coastal Water Temperatures

Place Temperature
No Stations Reporting

Nearby Weather Stations